createdAt,value
2023-09-27T00:02:09.439Z,20.10
2023-09-27T00:04:36.495Z,20.10
2023-09-27T00:07:03.536Z,20.10
2023-09-27T00:09:32.856Z,20.10
2023-09-27T00:12:00.045Z,20.00
2023-09-27T00:14:28.451Z,20.00
2023-09-27T00:16:55.568Z,19.90
2023-09-27T00:19:23.228Z,19.90
2023-09-27T00:21:50.075Z,19.90
2023-09-27T00:24:17.239Z,19.80
2023-09-27T00:26:44.139Z,19.80
2023-09-27T00:29:11.265Z,19.80
2023-09-27T00:31:38.306Z,19.80
2023-09-27T00:34:06.073Z,19.70
2023-09-27T00:36:33.031Z,19.80
2023-09-27T00:39:00.208Z,19.70
2023-09-27T00:41:27.716Z,19.70
2023-09-27T00:43:54.805Z,19.70
2023-09-27T00:46:23.758Z,19.70
2023-09-27T00:48:51.562Z,19.60
2023-09-27T00:51:19.361Z,19.60
2023-09-27T00:53:49.910Z,19.60
2023-09-27T00:56:17.534Z,19.50
2023-09-27T00:58:44.702Z,19.50
2023-09-27T01:01:14.164Z,19.50
2023-09-27T01:03:42.066Z,19.50
2023-09-27T01:06:09.604Z,19.40
2023-09-27T01:08:36.637Z,19.40
2023-09-27T01:11:05.978Z,19.40
2023-09-27T01:13:33.716Z,19.30
2023-09-27T01:16:00.790Z,19.30
2023-09-27T01:18:30.317Z,19.30
2023-09-27T01:20:57.472Z,19.30
2023-09-27T01:23:24.540Z,19.30
2023-09-27T01:25:58.191Z,19.30
2023-09-27T01:28:25.245Z,19.30
2023-09-27T01:30:53.578Z,19.30
2023-09-27T01:33:20.547Z,19.20
2023-09-27T01:35:47.529Z,19.20
2023-09-27T01:38:14.683Z,19.10
2023-09-27T01:40:46.200Z,19.10
2023-09-27T01:43:13.640Z,19.10
2023-09-27T01:45:43.760Z,19.00
2023-09-27T01:48:10.813Z,19.10
2023-09-27T01:50:39.147Z,19.00
2023-09-27T01:53:06.881Z,19.00
2023-09-27T01:55:34.645Z,19.00
2023-09-27T01:58:02.568Z,19.30
2023-09-27T02:00:30.611Z,18.90
2023-09-27T02:02:59.797Z,18.90
2023-09-27T02:05:30.574Z,18.90
2023-09-27T02:07:57.643Z,18.90
2023-09-27T02:10:24.773Z,18.80
2023-09-27T02:12:51.829Z,18.90
2023-09-27T02:15:18.965Z,18.80
2023-09-27T02:17:46.949Z,18.80
2023-09-27T02:20:22.066Z,18.80
2023-09-27T02:25:38.681Z,18.70
2023-09-27T02:28:07.589Z,18.70
2023-09-27T02:30:34.584Z,18.60
2023-09-27T02:33:01.577Z,18.60
2023-09-27T02:35:28.645Z,18.70
2023-09-27T02:40:30.019Z,18.50
2023-09-27T02:42:57.012Z,18.50
2023-09-27T02:45:24.129Z,18.50
2023-09-27T02:47:51.301Z,18.50
2023-09-27T02:50:18.394Z,18.50
2023-09-27T02:52:45.913Z,18.40
2023-09-27T02:55:13.639Z,18.40
2023-09-27T02:57:41.063Z,18.40
2023-09-27T03:00:09.995Z,18.40
2023-09-27T03:02:38.756Z,18.30
2023-09-27T03:05:08.970Z,18.30
2023-09-27T03:07:36.373Z,18.30
2023-09-27T03:10:12.129Z,18.30
2023-09-27T03:12:40.705Z,18.20
2023-09-27T03:15:13.915Z,18.30
2023-09-27T03:17:43.808Z,18.30
2023-09-27T03:20:18.449Z,18.30
2023-09-27T03:22:47.677Z,18.20
2023-09-27T03:25:15.476Z,18.20
2023-09-27T03:27:42.732Z,18.10
2023-09-27T03:30:10.270Z,18.10
2023-09-27T03:32:39.454Z,18.10
2023-09-27T03:35:08.624Z,18.10
2023-09-27T03:37:38.700Z,18.10
2023-09-27T03:40:14.681Z,18.00
2023-09-27T03:42:46.591Z,18.00
2023-09-27T03:45:16.497Z,18.10
2023-09-27T03:47:46.752Z,18.00
2023-09-27T03:50:19.054Z,17.90
2023-09-27T03:52:46.166Z,18.00
2023-09-27T03:55:13.701Z,18.00
2023-09-27T03:57:41.739Z,17.90
2023-09-27T04:00:15.876Z,17.90
2023-09-27T04:02:47.779Z,17.80
2023-09-27T04:05:16.245Z,17.80
2023-09-27T04:07:43.320Z,17.80
2023-09-27T04:10:10.877Z,17.80
2023-09-27T04:12:38.701Z,17.80
2023-09-27T04:15:09.622Z,17.80
2023-09-27T04:17:37.525Z,17.80
2023-09-27T04:20:20.501Z,17.70
2023-09-27T04:22:49.073Z,17.70
2023-09-27T04:25:16.660Z,17.60
2023-09-27T04:27:51.337Z,17.60
2023-09-27T04:30:23.744Z,17.60
2023-09-27T04:32:52.362Z,17.70
2023-09-27T04:35:21.118Z,17.60
2023-09-27T04:37:48.405Z,17.60
2023-09-27T04:40:15.904Z,17.60
2023-09-27T04:42:43.978Z,17.50
2023-09-27T04:45:13.474Z,17.50
2023-09-27T04:47:42.214Z,17.20
2023-09-27T04:50:17.153Z,17.50
2023-09-27T04:52:44.898Z,17.40
2023-09-27T04:55:12.034Z,17.40
2023-09-27T04:57:39.438Z,17.40
2023-09-27T05:00:13.249Z,17.40
2023-09-27T05:02:40.261Z,17.40
2023-09-27T05:05:09.125Z,17.40
2023-09-27T05:07:36.238Z,17.40
2023-09-27T05:10:03.629Z,17.30
2023-09-27T05:12:30.527Z,17.30
2023-09-27T05:14:59.486Z,17.30
2023-09-27T05:17:26.830Z,17.20
2023-09-27T05:19:54.719Z,17.30
2023-09-27T05:22:21.706Z,17.30
2023-09-27T05:24:48.725Z,17.20
2023-09-27T05:27:15.766Z,17.20
2023-09-27T05:29:43.254Z,17.20
2023-09-27T05:32:10.480Z,17.20
2023-09-27T05:34:37.523Z,17.20
2023-09-27T05:37:04.728Z,17.20
2023-09-27T05:39:31.701Z,17.20
2023-09-27T05:41:58.817Z,17.20
2023-09-27T05:44:26.384Z,17.20
2023-09-27T05:46:54.181Z,17.20
2023-09-27T05:49:21.903Z,17.20
2023-09-27T05:51:53.757Z,17.20
2023-09-27T05:54:21.312Z,17.20
2023-09-27T05:56:52.976Z,17.20
2023-09-27T05:59:25.621Z,17.20
2023-09-27T06:01:56.194Z,17.30
2023-09-27T06:04:23.473Z,17.30
2023-09-27T06:06:50.997Z,17.30
2023-09-27T06:09:18.855Z,17.40
2023-09-27T06:11:47.730Z,17.40
2023-09-27T06:14:14.835Z,17.40
2023-09-27T06:16:42.680Z,17.40
2023-09-27T06:19:11.265Z,17.40
2023-09-27T06:21:38.812Z,17.50
2023-09-27T06:24:09.841Z,17.40
2023-09-27T06:26:36.963Z,17.50
2023-09-27T06:29:04.193Z,17.40
2023-09-27T06:31:31.739Z,17.50
2023-09-27T06:33:59.021Z,17.60
2023-09-27T06:36:31.064Z,17.60
2023-09-27T06:38:58.114Z,17.50
2023-09-27T06:41:25.128Z,17.60
2023-09-27T06:43:52.283Z,17.60
2023-09-27T06:46:20.365Z,17.60
2023-09-27T06:48:47.893Z,17.60
2023-09-27T06:51:15.033Z,17.60
2023-09-27T06:53:43.630Z,17.70
2023-09-27T06:56:10.826Z,17.70
2023-09-27T06:58:38.641Z,17.70
2023-09-27T07:01:06.441Z,17.70
2023-09-27T07:03:35.467Z,17.80
2023-09-27T07:06:03.963Z,17.90
2023-09-27T07:08:31.535Z,17.90
2023-09-27T07:11:06.736Z,18.00
2023-09-27T07:13:33.956Z,18.00
2023-09-27T07:16:02.924Z,18.00
2023-09-27T07:18:30.084Z,18.10
2023-09-27T07:20:57.675Z,18.20
2023-09-27T07:23:24.766Z,18.30
2023-09-27T07:25:51.769Z,18.30
2023-09-27T07:28:18.783Z,18.40
2023-09-27T07:30:46.410Z,18.50
2023-09-27T07:33:13.826Z,18.50
2023-09-27T07:35:45.461Z,18.50
2023-09-27T07:38:12.846Z,18.60
2023-09-27T07:40:40.167Z,18.70
2023-09-27T07:43:07.615Z,18.80
2023-09-27T07:45:37.813Z,18.90
2023-09-27T07:48:05.654Z,18.90
2023-09-27T07:50:33.145Z,19.00
2023-09-27T07:53:01.312Z,19.10
2023-09-27T07:55:28.486Z,19.10
2023-09-27T07:57:55.902Z,19.20
2023-09-27T08:00:27.048Z,19.20
2023-09-27T08:02:56.566Z,19.30
2023-09-27T08:05:24.185Z,19.50
2023-09-27T08:07:54.637Z,19.50
2023-09-27T08:10:22.499Z,19.60
2023-09-27T08:12:49.898Z,19.60
2023-09-27T08:15:19.173Z,19.70
2023-09-27T08:17:49.065Z,19.80
2023-09-27T08:20:16.490Z,19.80
2023-09-27T08:22:43.861Z,19.90
2023-09-27T08:25:18.252Z,20.00
2023-09-27T08:27:46.251Z,20.00
2023-09-27T08:30:16.175Z,20.10
2023-09-27T08:32:47.604Z,20.20
2023-09-27T08:35:14.806Z,20.20
2023-09-27T08:37:41.749Z,20.30
2023-09-27T08:40:14.364Z,20.30
2023-09-27T08:42:42.966Z,20.40
2023-09-27T08:45:17.674Z,20.50
2023-09-27T08:47:46.420Z,20.70
2023-09-27T08:50:16.945Z,20.80
2023-09-27T08:52:49.850Z,20.90
2023-09-27T08:55:19.205Z,21.00
2023-09-27T08:57:51.238Z,21.20
2023-09-27T09:00:27.503Z,21.30
2023-09-27T09:03:00.032Z,21.40
2023-09-27T09:05:29.490Z,21.50
2023-09-27T09:07:57.653Z,21.60
2023-09-27T09:10:25.010Z,21.70
2023-09-27T09:12:53.431Z,21.70
2023-09-27T09:15:41.386Z,21.90
2023-09-27T09:18:37.784Z,21.90
2023-09-27T09:21:18.706Z,22.00
2023-09-27T09:23:50.635Z,22.10
2023-09-27T09:26:29.830Z,22.20
2023-09-27T09:29:00.488Z,22.30
2023-09-27T09:31:34.377Z,22.30
2023-09-27T09:34:09.243Z,22.40
2023-09-27T09:36:38.291Z,22.50
2023-09-27T09:39:07.187Z,22.60
2023-09-27T09:42:00.362Z,22.60
2023-09-27T09:44:27.602Z,22.70
2023-09-27T09:46:54.703Z,22.80
2023-09-27T09:49:23.003Z,22.80
2023-09-27T09:51:54.112Z,22.90
2023-09-27T09:54:47.850Z,22.90
2023-09-27T09:57:24.809Z,23.00
2023-09-27T10:00:28.475Z,23.00
2023-09-27T10:03:03.749Z,23.10
2023-09-27T10:05:52.919Z,23.20
2023-09-27T10:08:20.908Z,23.30
2023-09-27T10:10:48.375Z,23.30
2023-09-27T10:13:16.094Z,23.40
2023-09-27T10:15:44.466Z,23.50
2023-09-27T10:18:23.708Z,23.50
2023-09-27T10:21:06.088Z,23.60
2023-09-27T10:23:58.717Z,23.60
2023-09-27T10:26:28.771Z,23.70
2023-09-27T10:29:05.742Z,23.70
2023-09-27T10:31:37.573Z,23.80
2023-09-27T10:34:24.725Z,23.90
2023-09-27T10:37:04.648Z,24.00
2023-09-27T10:39:40.023Z,24.00
2023-09-27T10:42:07.322Z,24.00
2023-09-27T10:44:36.782Z,24.20
2023-09-27T10:47:07.635Z,24.20
2023-09-27T10:49:40.017Z,24.20
2023-09-27T10:52:19.810Z,24.30
2023-09-27T10:54:48.121Z,24.40
2023-09-27T10:57:15.746Z,24.40
2023-09-27T10:59:46.103Z,24.50
2023-09-27T11:02:13.298Z,24.60
2023-09-27T11:04:42.179Z,24.60
2023-09-27T11:07:09.260Z,24.70
2023-09-27T11:09:45.145Z,24.80
2023-09-27T11:12:12.064Z,24.90
2023-09-27T11:14:48.629Z,24.90
2023-09-27T11:17:23.944Z,25.00
2023-09-27T11:19:52.053Z,25.10
2023-09-27T11:22:31.534Z,25.10
2023-09-27T11:24:58.607Z,25.20
2023-09-27T11:27:25.689Z,25.30
2023-09-27T11:29:54.240Z,25.40
2023-09-27T11:32:23.452Z,25.40
2023-09-27T11:35:01.264Z,25.50
2023-09-27T11:37:29.813Z,25.60
2023-09-27T11:39:58.497Z,25.60
2023-09-27T11:42:27.994Z,25.70
2023-09-27T11:45:12.448Z,25.70
2023-09-27T11:47:49.868Z,25.90
2023-09-27T11:50:18.980Z,25.90
2023-09-27T11:52:48.173Z,26.00
2023-09-27T11:55:15.601Z,26.00
2023-09-27T11:57:43.246Z,26.10
2023-09-27T12:00:14.810Z,26.10
2023-09-27T12:02:52.036Z,26.20
2023-09-27T12:05:23.554Z,26.40
2023-09-27T12:07:51.001Z,26.40
2023-09-27T12:10:18.329Z,26.50
2023-09-27T12:12:45.404Z,26.60
2023-09-27T12:15:12.419Z,26.70
2023-09-27T12:17:39.628Z,26.70
2023-09-27T12:20:13.273Z,26.80
2023-09-27T12:22:47.002Z,26.90
2023-09-27T12:25:14.382Z,26.90
2023-09-27T12:27:41.576Z,27.10
2023-09-27T12:30:09.589Z,27.20
2023-09-27T12:32:36.629Z,27.20
2023-09-27T12:35:05.568Z,27.30
2023-09-27T12:37:32.958Z,27.40
2023-09-27T12:39:59.849Z,27.40
2023-09-27T12:42:27.585Z,27.50
2023-09-27T12:44:55.166Z,27.90
2023-09-27T12:47:22.480Z,27.70
2023-09-27T12:49:49.378Z,27.70
2023-09-27T12:52:16.494Z,27.80
2023-09-27T12:54:45.722Z,27.90
2023-09-27T12:57:12.752Z,27.90
2023-09-27T12:59:39.692Z,28.00
2023-09-27T13:02:07.756Z,28.00
2023-09-27T13:04:36.307Z,28.10
2023-09-27T13:07:04.250Z,28.20
2023-09-27T13:09:32.227Z,28.30
2023-09-27T13:12:09.663Z,28.40
2023-09-27T13:14:36.752Z,28.40
2023-09-27T13:17:03.627Z,28.50
2023-09-27T13:19:32.657Z,28.50
2023-09-27T13:21:59.684Z,28.60
2023-09-27T13:24:26.651Z,28.70
2023-09-27T13:26:53.806Z,28.70
2023-09-27T13:29:20.885Z,28.80
2023-09-27T13:31:48.387Z,28.90
2023-09-27T13:34:17.243Z,29.00
2023-09-27T13:36:44.394Z,29.00
2023-09-27T13:39:23.387Z,29.20
2023-09-27T13:41:50.473Z,29.20
2023-09-27T13:44:17.495Z,29.20
2023-09-27T13:46:45.623Z,29.30
2023-09-27T13:49:13.266Z,29.30
2023-09-27T13:51:41.026Z,29.30
2023-09-27T13:54:08.740Z,29.40
2023-09-27T13:56:38.212Z,29.40
2023-09-27T13:59:06.332Z,29.50
2023-09-27T14:01:33.697Z,29.60
2023-09-27T14:04:02.300Z,29.60
2023-09-27T14:06:29.963Z,29.60
2023-09-27T14:08:57.774Z,29.70
2023-09-27T14:11:24.964Z,29.80
2023-09-27T14:13:52.486Z,29.80
2023-09-27T14:16:20.069Z,29.90
2023-09-27T14:18:47.331Z,29.90
2023-09-27T14:21:14.959Z,29.90
2023-09-27T14:23:43.864Z,30.00
2023-09-27T14:26:14.678Z,30.00
2023-09-27T14:28:41.850Z,30.10
2023-09-27T14:31:09.048Z,30.10
2023-09-27T14:33:36.459Z,30.20
2023-09-27T14:36:06.837Z,30.20
2023-09-27T14:38:37.268Z,30.30
2023-09-27T14:41:09.527Z,30.30
2023-09-27T14:43:38.534Z,30.30
2023-09-27T14:46:13.041Z,30.30
2023-09-27T14:48:40.666Z,30.40
2023-09-27T14:51:12.731Z,30.40
2023-09-27T14:53:42.349Z,30.40
2023-09-27T14:56:10.861Z,30.40
2023-09-27T14:58:38.244Z,30.50
2023-09-27T15:01:05.919Z,30.50
2023-09-27T15:03:33.804Z,30.50
2023-09-27T15:06:05.018Z,30.50
2023-09-27T15:08:33.147Z,30.60
2023-09-27T15:11:00.781Z,30.60
2023-09-27T15:13:28.654Z,30.70
2023-09-27T15:15:55.874Z,30.60
2023-09-27T15:18:25.736Z,30.50
2023-09-27T15:20:53.618Z,30.50
2023-09-27T15:23:20.789Z,30.50
2023-09-27T15:25:49.543Z,30.50
2023-09-27T15:28:16.579Z,30.50
2023-09-27T15:30:43.535Z,30.40
2023-09-27T15:33:10.751Z,30.40
2023-09-27T15:35:39.176Z,30.40
2023-09-27T15:38:06.791Z,30.40
2023-09-27T15:40:34.537Z,30.30
2023-09-27T15:43:02.035Z,30.30
2023-09-27T15:45:30.589Z,30.20
2023-09-27T15:47:58.222Z,30.10
2023-09-27T15:50:25.443Z,30.10
2023-09-27T15:52:52.414Z,30.00
2023-09-27T15:55:19.914Z,30.00
2023-09-27T15:57:46.901Z,29.80
2023-09-27T16:00:14.500Z,29.80
2023-09-27T16:02:41.417Z,29.60
2023-09-27T16:05:12.686Z,29.50
2023-09-27T16:07:43.136Z,29.40
2023-09-27T16:10:10.754Z,29.40
2023-09-27T16:12:38.215Z,29.20
2023-09-27T16:15:10.588Z,29.10
2023-09-27T16:17:40.149Z,29.00
2023-09-27T16:20:08.353Z,28.90
2023-09-27T16:22:35.919Z,28.80
2023-09-27T16:25:06.791Z,28.70
2023-09-27T16:27:34.270Z,28.60
2023-09-27T16:30:01.479Z,28.40
2023-09-27T16:32:29.665Z,28.30
2023-09-27T16:34:56.745Z,28.10
2023-09-27T16:37:23.839Z,27.90
2023-09-27T16:39:50.940Z,27.80
2023-09-27T16:42:17.911Z,27.60
2023-09-27T16:44:44.928Z,27.50
2023-09-27T16:47:11.866Z,27.30
2023-09-27T16:49:39.358Z,27.20
2023-09-27T16:52:06.508Z,27.10
2023-09-27T16:54:33.399Z,27.00
2023-09-27T16:57:00.427Z,26.90
2023-09-27T16:59:27.726Z,26.70
2023-09-27T17:01:54.835Z,26.60
2023-09-27T17:04:21.966Z,26.50
2023-09-27T17:06:49.787Z,26.40
2023-09-27T17:09:17.245Z,26.30
2023-09-27T17:11:44.359Z,26.30
2023-09-27T17:14:12.448Z,26.10
2023-09-27T17:16:42.437Z,26.00
2023-09-27T17:19:09.454Z,26.00
2023-09-27T17:21:36.742Z,25.80
2023-09-27T17:24:04.057Z,25.80
2023-09-27T17:26:30.947Z,25.50
2023-09-27T17:29:01.208Z,25.60
2023-09-27T17:31:28.733Z,25.50
2023-09-27T17:33:56.050Z,25.40
2023-09-27T17:36:30.006Z,25.30
2023-09-27T17:38:57.184Z,25.20
2023-09-27T17:41:24.336Z,25.10
2023-09-27T17:43:51.679Z,25.10
2023-09-27T17:46:26.467Z,25.00
2023-09-27T17:48:54.215Z,24.90
2023-09-27T17:51:21.139Z,24.80
2023-09-27T17:53:48.190Z,24.80
2023-09-27T17:56:15.328Z,24.80
2023-09-27T17:58:42.250Z,24.60
2023-09-27T18:01:09.264Z,24.60
2023-09-27T18:03:36.621Z,24.60
2023-09-27T18:06:14.053Z,24.50
2023-09-27T18:08:41.834Z,24.40
2023-09-27T18:11:09.809Z,24.40
2023-09-27T18:13:36.969Z,24.40
2023-09-27T18:16:11.843Z,24.30
2023-09-27T18:18:38.873Z,24.20
2023-09-27T18:21:05.891Z,24.20
2023-09-27T18:23:32.872Z,24.20
2023-09-27T18:25:59.874Z,24.00
2023-09-27T18:28:26.913Z,24.00
2023-09-27T18:30:57.112Z,23.90
2023-09-27T18:33:25.255Z,23.90
2023-09-27T18:35:52.456Z,23.80
2023-09-27T18:38:19.444Z,23.80
2023-09-27T18:40:46.690Z,23.70
2023-09-27T18:43:17.465Z,23.70
2023-09-27T18:45:44.937Z,23.60
2023-09-27T18:48:16.781Z,23.50
2023-09-27T18:50:49.520Z,23.60
2023-09-27T18:53:16.778Z,23.50
2023-09-27T18:55:46.742Z,23.50
2023-09-27T18:58:16.693Z,23.50
2023-09-27T19:00:44.481Z,23.30
2023-09-27T19:03:13.794Z,23.30
2023-09-27T19:05:41.599Z,23.30
2023-09-27T19:08:09.124Z,23.30
2023-09-27T19:10:39.073Z,23.20
2023-09-27T19:13:22.383Z,23.20
2023-09-27T19:15:49.755Z,23.40
2023-09-27T19:18:16.654Z,23.10
2023-09-27T19:20:43.712Z,23.10
2023-09-27T19:23:10.701Z,23.10
2023-09-27T19:25:37.779Z,23.10
2023-09-27T19:28:04.785Z,23.00
2023-09-27T19:30:34.221Z,22.90
2023-09-27T19:33:01.491Z,22.90
2023-09-27T19:35:29.516Z,22.80
2023-09-27T19:37:56.599Z,22.80
2023-09-27T19:40:23.872Z,22.80
2023-09-27T19:42:51.371Z,22.80
2023-09-27T19:45:19.271Z,22.70
2023-09-27T19:47:46.580Z,22.70
2023-09-27T19:50:13.597Z,22.60
2023-09-27T19:52:40.798Z,22.60
2023-09-27T19:55:10.224Z,22.60
2023-09-27T19:57:37.738Z,22.50
2023-09-27T20:00:08.184Z,22.50
2023-09-27T20:02:38.346Z,22.50
2023-09-27T20:05:07.622Z,22.50
2023-09-27T20:07:35.381Z,22.40
2023-09-27T20:10:02.288Z,22.40
2023-09-27T20:12:29.209Z,22.40
2023-09-27T20:14:56.513Z,22.40
2023-09-27T20:17:23.610Z,22.40
2023-09-27T20:19:50.600Z,22.30
2023-09-27T20:22:20.062Z,22.30
2023-09-27T20:24:47.156Z,22.20
2023-09-27T20:27:14.124Z,22.20
2023-09-27T20:29:41.220Z,22.20
2023-09-27T20:32:08.249Z,22.20
2023-09-27T20:34:35.475Z,22.10
2023-09-27T20:37:02.353Z,22.10
2023-09-27T20:39:29.325Z,22.10
2023-09-27T20:41:57.421Z,22.10
2023-09-27T20:44:24.990Z,22.00
2023-09-27T20:46:52.382Z,22.10
2023-09-27T20:49:19.415Z,22.10
2023-09-27T20:51:46.315Z,22.00
2023-09-27T20:54:13.636Z,22.00
2023-09-27T20:56:40.568Z,22.00
2023-09-27T20:59:09.177Z,22.00
2023-09-27T21:01:42.366Z,21.90
2023-09-27T21:04:11.471Z,21.90
2023-09-27T21:06:38.471Z,21.90
2023-09-27T21:09:05.449Z,21.80
2023-09-27T21:11:33.144Z,21.80
2023-09-27T21:14:01.378Z,21.80
2023-09-27T21:16:30.437Z,21.70
2023-09-27T21:18:58.074Z,21.70
2023-09-27T21:21:25.166Z,21.60
2023-09-27T21:23:53.503Z,21.60
2023-09-27T21:26:24.067Z,21.60
2023-09-27T21:28:51.085Z,21.50
2023-09-27T21:31:19.076Z,21.60
2023-09-27T21:33:46.032Z,21.50
2023-09-27T21:36:13.279Z,21.50
2023-09-27T21:38:40.413Z,21.40
2023-09-27T21:41:07.643Z,21.40
2023-09-27T21:43:34.775Z,21.40
2023-09-27T21:46:02.594Z,21.40
2023-09-27T21:48:30.408Z,21.30
2023-09-27T21:50:57.523Z,21.30
2023-09-27T21:53:24.584Z,21.30
2023-09-27T21:55:51.679Z,21.20
2023-09-27T21:58:18.652Z,21.10
2023-09-27T22:00:45.648Z,21.10
2023-09-27T22:03:14.558Z,21.10
2023-09-27T22:05:42.208Z,21.00
2023-09-27T22:08:17.721Z,21.00
2023-09-27T22:10:45.615Z,20.90
2023-09-27T22:13:22.574Z,20.90
2023-09-27T22:15:55.894Z,20.90
2023-09-27T22:18:23.931Z,20.90
2023-09-27T22:20:50.990Z,20.80
2023-09-27T22:23:33.238Z,20.80
2023-09-27T22:26:01.590Z,20.90
2023-09-27T22:28:31.918Z,20.80
2023-09-27T22:31:02.452Z,20.80
2023-09-27T22:33:36.118Z,20.80
2023-09-27T22:36:03.246Z,20.80
2023-09-27T22:38:31.989Z,20.70
2023-09-27T22:40:58.935Z,20.60
2023-09-27T22:43:25.865Z,20.60
2023-09-27T22:45:53.651Z,20.60
2023-09-27T22:48:20.945Z,20.50
2023-09-27T22:50:49.689Z,20.50
2023-09-27T22:53:18.259Z,20.50
2023-09-27T22:56:00.227Z,20.40
2023-09-27T22:58:29.954Z,20.40
2023-09-27T23:01:00.617Z,20.40
2023-09-27T23:03:30.411Z,20.30
2023-09-27T23:05:57.808Z,20.30
2023-09-27T23:08:29.022Z,20.30
2023-09-27T23:11:00.485Z,20.20
2023-09-27T23:13:31.275Z,20.20
2023-09-27T23:16:22.491Z,20.10
2023-09-27T23:18:49.990Z,20.20
2023-09-27T23:21:24.397Z,20.10
2023-09-27T23:23:57.731Z,20.10
2023-09-27T23:26:50.991Z,20.00
2023-09-27T23:29:30.083Z,20.00
2023-09-27T23:31:58.910Z,20.00
2023-09-27T23:34:45.209Z,20.00
2023-09-27T23:37:13.927Z,19.90
2023-09-27T23:39:44.773Z,19.90
2023-09-27T23:42:28.702Z,19.90
2023-09-27T23:45:09.604Z,19.90
2023-09-27T23:47:45.225Z,19.80
2023-09-27T23:50:17.214Z,19.80
2023-09-27T23:52:48.719Z,19.80
2023-09-27T23:55:21.670Z,19.70
2023-09-27T23:57:49.174Z,19.70
